sensor_id;sensor_type;location;lat;lon;timestamp;temperature;humidity
35381;DHT22;21486;51.916;8.378;2022-12-07T00:01:37;4.60;99.10
35381;DHT22;21486;51.916;8.378;2022-12-07T00:04:05;4.60;99.20
35381;DHT22;21486;51.916;8.378;2022-12-07T00:06:43;4.50;99.20
35381;DHT22;21486;51.916;8.378;2022-12-07T00:09:14;4.60;99.30
35381;DHT22;21486;51.916;8.378;2022-12-07T00:11:40;4.50;99.20
35381;DHT22;21486;51.916;8.378;2022-12-07T00:14:10;4.60;99.20
35381;DHT22;21486;51.916;8.378;2022-12-07T00:16:35;4.60;99.10
35381;DHT22;21486;51.916;8.378;2022-12-07T00:19:02;4.60;99.10
35381;DHT22;21486;51.916;8.378;2022-12-07T00:21:31;4.60;99.00
35381;DHT22;21486;51.916;8.378;2022-12-07T00:23:57;4.60;99.10
35381;DHT22;21486;51.916;8.378;2022-12-07T00:26:30;4.60;99.30
35381;DHT22;21486;51.916;8.378;2022-12-07T00:28:59;4.60;99.30
35381;DHT22;21486;51.916;8.378;2022-12-07T00:31:27;4.70;99.40
35381;DHT22;21486;51.916;8.378;2022-12-07T00:33:53;4.60;99.30
35381;DHT22;21486;51.916;8.378;2022-12-07T00:36:21;4.60;99.40
35381;DHT22;21486;51.916;8.378;2022-12-07T00:38:46;4.60;99.40
35381;DHT22;21486;51.916;8.378;2022-12-07T00:41:16;4.60;99.30
35381;DHT22;21486;51.916;8.378;2022-12-07T00:43:43;4.60;99.50
35381;DHT22;21486;51.916;8.378;2022-12-07T00:46:10;4.70;99.40
35381;DHT22;21486;51.916;8.378;2022-12-07T00:48:36;4.70;99.40
35381;DHT22;21486;51.916;8.378;2022-12-07T00:51:03;4.60;99.40
35381;DHT22;21486;51.916;8.378;2022-12-07T00:53:29;4.50;99.40
35381;DHT22;21486;51.916;8.378;2022-12-07T00:55:55;4.60;99.50
35381;DHT22;21486;51.916;8.378;2022-12-07T00:58:22;4.70;99.50
35381;DHT22;21486;51.916;8.378;2022-12-07T01:00:48;4.60;99.40
35381;DHT22;21486;51.916;8.378;2022-12-07T01:03:15;4.60;99.50
35381;DHT22;21486;51.916;8.378;2022-12-07T01:05:52;4.70;99.40
35381;DHT22;21486;51.916;8.378;2022-12-07T01:08:19;4.70;99.20
35381;DHT22;21486;51.916;8.378;2022-12-07T01:10:45;4.70;98.90
35381;DHT22;21486;51.916;8.378;2022-12-07T01:13:11;4.70;99.00
35381;DHT22;21486;51.916;8.378;2022-12-07T01:15:44;4.70;98.80
35381;DHT22;21486;51.916;8.378;2022-12-07T01:18:10;4.70;99.00
35381;DHT22;21486;51.916;8.378;2022-12-07T01:20:36;4.60;99.20
35381;DHT22;21486;51.916;8.378;2022-12-07T01:23:02;4.60;99.30
35381;DHT22;21486;51.916;8.378;2022-12-07T01:25:28;4.60;99.40
35381;DHT22;21486;51.916;8.378;2022-12-07T01:27:54;4.60;99.40
35381;DHT22;21486;51.916;8.378;2022-12-07T01:33:04;4.60;99.30
35381;DHT22;21486;51.916;8.378;2022-12-07T01:35:29;4.60;99.30
35381;DHT22;21486;51.916;8.378;2022-12-07T01:37:55;4.70;99.40
35381;DHT22;21486;51.916;8.378;2022-12-07T01:40:20;4.80;99.30
35381;DHT22;21486;51.916;8.378;2022-12-07T01:42:46;4.70;99.10
35381;DHT22;21486;51.916;8.378;2022-12-07T01:47:46;4.70;99.00
35381;DHT22;21486;51.916;8.378;2022-12-07T01:50:12;4.70;99.00
35381;DHT22;21486;51.916;8.378;2022-12-07T01:52:39;4.60;99.40
35381;DHT22;21486;51.916;8.378;2022-12-07T01:55:08;4.60;99.20
35381;DHT22;21486;51.916;8.378;2022-12-07T01:57:36;4.60;99.30
35381;DHT22;21486;51.916;8.378;2022-12-07T02:00:04;4.60;99.30
35381;DHT22;21486;51.916;8.378;2022-12-07T02:02:34;4.60;99.40
35381;DHT22;21486;51.916;8.378;2022-12-07T02:05:02;4.60;99.40
35381;DHT22;21486;51.916;8.378;2022-12-07T02:07:29;4.60;99.40
35381;DHT22;21486;51.916;8.378;2022-12-07T02:09:55;4.70;99.30
35381;DHT22;21486;51.916;8.378;2022-12-07T02:12:21;4.70;99.10
35381;DHT22;21486;51.916;8.378;2022-12-07T02:14:48;4.60;99.10
35381;DHT22;21486;51.916;8.378;2022-12-07T02:20:33;4.70;98.90
35381;DHT22;21486;51.916;8.378;2022-12-07T02:29:38;4.70;98.70
35381;DHT22;21486;51.916;8.378;2022-12-07T02:37:33;4.70;98.80
35381;DHT22;21486;51.916;8.378;2022-12-07T02:40:06;4.70;98.80
35381;DHT22;21486;51.916;8.378;2022-12-07T02:42:50;4.80;98.50
35381;DHT22;21486;51.916;8.378;2022-12-07T02:45:21;4.70;98.40
35381;DHT22;21486;51.916;8.378;2022-12-07T02:47:50;4.90;97.90
35381;DHT22;21486;51.916;8.378;2022-12-07T02:50:19;4.80;98.00
35381;DHT22;21486;51.916;8.378;2022-12-07T02:52:46;4.70;98.10
35381;DHT22;21486;51.916;8.378;2022-12-07T02:55:12;4.70;98.20
35381;DHT22;21486;51.916;8.378;2022-12-07T03:00:21;4.70;98.00
35381;DHT22;21486;51.916;8.378;2022-12-07T03:02:58;4.70;97.70
35381;DHT22;21486;51.916;8.378;2022-12-07T03:08:39;4.60;97.60
35381;DHT22;21486;51.916;8.378;2022-12-07T03:11:13;4.60;97.50
35381;DHT22;21486;51.916;8.378;2022-12-07T03:13:59;4.60;97.40
35381;DHT22;21486;51.916;8.378;2022-12-07T03:16:33;4.50;97.50
35381;DHT22;21486;51.916;8.378;2022-12-07T03:19:05;4.50;97.60
35381;DHT22;21486;51.916;8.378;2022-12-07T03:21:41;4.50;97.60
35381;DHT22;21486;51.916;8.378;2022-12-07T03:24:14;4.40;97.40
35381;DHT22;21486;51.916;8.378;2022-12-07T03:26:45;4.40;97.60
35381;DHT22;21486;51.916;8.378;2022-12-07T03:29:22;4.50;97.50
35381;DHT22;21486;51.916;8.378;2022-12-07T03:31:56;4.40;97.50
35381;DHT22;21486;51.916;8.378;2022-12-07T03:34:36;4.30;97.50
35381;DHT22;21486;51.916;8.378;2022-12-07T03:37:08;4.40;97.60
35381;DHT22;21486;51.916;8.378;2022-12-07T03:42:46;4.50;97.00
35381;DHT22;21486;51.916;8.378;2022-12-07T03:45:12;4.30;97.20
35381;DHT22;21486;51.916;8.378;2022-12-07T03:50:41;4.20;97.60
35381;DHT22;21486;51.916;8.378;2022-12-07T03:53:17;4.20;97.50
35381;DHT22;21486;51.916;8.378;2022-12-07T03:55:46;4.20;97.40
35381;DHT22;21486;51.916;8.378;2022-12-07T03:58:15;4.30;97.50
35381;DHT22;21486;51.916;8.378;2022-12-07T04:00:42;4.20;97.20
35381;DHT22;21486;51.916;8.378;2022-12-07T04:03:09;4.20;97.10
35381;DHT22;21486;51.916;8.378;2022-12-07T04:05:35;4.10;97.20
35381;DHT22;21486;51.916;8.378;2022-12-07T04:08:01;4.10;97.40
35381;DHT22;21486;51.916;8.378;2022-12-07T04:10:27;4.00;97.40
35381;DHT22;21486;51.916;8.378;2022-12-07T04:12:52;4.10;97.40
35381;DHT22;21486;51.916;8.378;2022-12-07T04:15:18;4.00;97.40
35381;DHT22;21486;51.916;8.378;2022-12-07T04:17:43;4.00;97.60
35381;DHT22;21486;51.916;8.378;2022-12-07T04:20:09;4.00;97.50
35381;DHT22;21486;51.916;8.378;2022-12-07T04:22:35;3.90;97.40
35381;DHT22;21486;51.916;8.378;2022-12-07T04:25:01;3.90;97.40
35381;DHT22;21486;51.916;8.378;2022-12-07T04:27:27;3.80;97.30
35381;DHT22;21486;51.916;8.378;2022-12-07T04:29:52;3.90;97.30
35381;DHT22;21486;51.916;8.378;2022-12-07T04:32:18;3.80;97.30
35381;DHT22;21486;51.916;8.378;2022-12-07T04:34:43;3.70;97.50
35381;DHT22;21486;51.916;8.378;2022-12-07T04:37:09;3.70;97.50
35381;DHT22;21486;51.916;8.378;2022-12-07T04:39:35;3.70;97.30
35381;DHT22;21486;51.916;8.378;2022-12-07T04:42:01;3.70;97.40
35381;DHT22;21486;51.916;8.378;2022-12-07T04:44:28;3.70;97.50
35381;DHT22;21486;51.916;8.378;2022-12-07T04:46:54;3.60;97.60
35381;DHT22;21486;51.916;8.378;2022-12-07T04:49:20;3.50;97.60
35381;DHT22;21486;51.916;8.378;2022-12-07T04:51:46;3.60;97.50
35381;DHT22;21486;51.916;8.378;2022-12-07T04:54:13;3.50;97.60
35381;DHT22;21486;51.916;8.378;2022-12-07T04:56:39;3.40;97.90
35381;DHT22;21486;51.916;8.378;2022-12-07T04:59:05;3.40;98.10
35381;DHT22;21486;51.916;8.378;2022-12-07T05:01:31;3.30;98.20
35381;DHT22;21486;51.916;8.378;2022-12-07T05:03:57;3.40;98.20
35381;DHT22;21486;51.916;8.378;2022-12-07T05:06:22;3.50;98.40
35381;DHT22;21486;51.916;8.378;2022-12-07T05:08:48;3.50;97.70
35381;DHT22;21486;51.916;8.378;2022-12-07T05:11:14;3.50;97.70
35381;DHT22;21486;51.916;8.378;2022-12-07T05:14:01;3.40;97.90
35381;DHT22;21486;51.916;8.378;2022-12-07T05:16:27;3.40;97.90
35381;DHT22;21486;51.916;8.378;2022-12-07T05:18:53;3.30;97.90
35381;DHT22;21486;51.916;8.378;2022-12-07T05:21:19;3.30;97.90
35381;DHT22;21486;51.916;8.378;2022-12-07T05:23:44;3.30;97.80
35381;DHT22;21486;51.916;8.378;2022-12-07T05:26:10;3.30;97.80
35381;DHT22;21486;51.916;8.378;2022-12-07T05:28:36;3.30;97.90
35381;DHT22;21486;51.916;8.378;2022-12-07T05:31:02;3.30;97.90
35381;DHT22;21486;51.916;8.378;2022-12-07T05:33:28;3.30;98.00
35381;DHT22;21486;51.916;8.378;2022-12-07T05:35:54;3.30;97.70
35381;DHT22;21486;51.916;8.378;2022-12-07T05:38:20;3.30;97.70
35381;DHT22;21486;51.916;8.378;2022-12-07T05:40:45;3.20;97.80
35381;DHT22;21486;51.916;8.378;2022-12-07T05:43:11;3.30;97.90
35381;DHT22;21486;51.916;8.378;2022-12-07T05:45:36;3.20;97.90
35381;DHT22;21486;51.916;8.378;2022-12-07T05:48:02;3.20;98.00
35381;DHT22;21486;51.916;8.378;2022-12-07T05:50:28;3.20;98.00
35381;DHT22;21486;51.916;8.378;2022-12-07T05:52:53;3.10;98.10
35381;DHT22;21486;51.916;8.378;2022-12-07T05:55:19;3.10;98.00
35381;DHT22;21486;51.916;8.378;2022-12-07T05:57:45;3.20;97.90
35381;DHT22;21486;51.916;8.378;2022-12-07T06:00:31;3.20;97.60
35381;DHT22;21486;51.916;8.378;2022-12-07T06:02:57;3.30;97.70
35381;DHT22;21486;51.916;8.378;2022-12-07T06:05:23;3.20;97.60
35381;DHT22;21486;51.916;8.378;2022-12-07T06:07:48;3.20;97.70
35381;DHT22;21486;51.916;8.378;2022-12-07T06:10:14;3.10;97.90
35381;DHT22;21486;51.916;8.378;2022-12-07T06:12:40;3.10;98.10
35381;DHT22;21486;51.916;8.378;2022-12-07T06:15:08;3.10;98.50
35381;DHT22;21486;51.916;8.378;2022-12-07T06:17:35;3.10;98.10
35381;DHT22;21486;51.916;8.378;2022-12-07T06:20:01;3.10;98.10
35381;DHT22;21486;51.916;8.378;2022-12-07T06:22:27;3.20;98.10
35381;DHT22;21486;51.916;8.378;2022-12-07T06:24:53;3.20;97.80
35381;DHT22;21486;51.916;8.378;2022-12-07T06:27:18;3.00;97.80
35381;DHT22;21486;51.916;8.378;2022-12-07T06:29:44;3.00;98.10
35381;DHT22;21486;51.916;8.378;2022-12-07T06:32:10;3.00;98.10
35381;DHT22;21486;51.916;8.378;2022-12-07T06:34:36;3.00;98.30
35381;DHT22;21486;51.916;8.378;2022-12-07T06:37:02;2.90;98.30
35381;DHT22;21486;51.916;8.378;2022-12-07T06:39:28;3.10;98.30
35381;DHT22;21486;51.916;8.378;2022-12-07T06:41:55;3.00;97.90
35381;DHT22;21486;51.916;8.378;2022-12-07T06:44:21;3.00;97.90
35381;DHT22;21486;51.916;8.378;2022-12-07T06:46:48;3.00;97.90
35381;DHT22;21486;51.916;8.378;2022-12-07T06:49:14;2.90;98.00
35381;DHT22;21486;51.916;8.378;2022-12-07T06:51:41;2.90;98.00
35381;DHT22;21486;51.916;8.378;2022-12-07T06:54:09;2.90;97.90
35381;DHT22;21486;51.916;8.378;2022-12-07T06:56:35;2.90;98.00
35381;DHT22;21486;51.916;8.378;2022-12-07T06:59:03;2.80;97.90
35381;DHT22;21486;51.916;8.378;2022-12-07T07:01:31;2.70;98.00
35381;DHT22;21486;51.916;8.378;2022-12-07T07:03:56;2.70;98.10
35381;DHT22;21486;51.916;8.378;2022-12-07T07:06:23;2.70;98.00
35381;DHT22;21486;51.916;8.378;2022-12-07T07:08:58;2.70;98.00
35381;DHT22;21486;51.916;8.378;2022-12-07T07:11:24;2.70;97.70
35381;DHT22;21486;51.916;8.378;2022-12-07T07:13:49;2.50;98.00
35381;DHT22;21486;51.916;8.378;2022-12-07T07:16:15;2.50;98.40
35381;DHT22;21486;51.916;8.378;2022-12-07T07:18:41;2.50;98.50
35381;DHT22;21486;51.916;8.378;2022-12-07T07:21:07;2.60;98.40
35381;DHT22;21486;51.916;8.378;2022-12-07T07:23:33;2.60;98.20
35381;DHT22;21486;51.916;8.378;2022-12-07T07:25:58;2.50;98.10
35381;DHT22;21486;51.916;8.378;2022-12-07T07:28:24;2.50;98.30
35381;DHT22;21486;51.916;8.378;2022-12-07T07:30:50;2.50;98.10
35381;DHT22;21486;51.916;8.378;2022-12-07T07:33:15;2.50;97.90
35381;DHT22;21486;51.916;8.378;2022-12-07T07:35:41;2.50;98.00
35381;DHT22;21486;51.916;8.378;2022-12-07T07:38:08;2.50;98.00
35381;DHT22;21486;51.916;8.378;2022-12-07T07:40:34;2.50;97.90
35381;DHT22;21486;51.916;8.378;2022-12-07T07:42:59;2.50;98.10
35381;DHT22;21486;51.916;8.378;2022-12-07T07:45:26;2.40;97.90
35381;DHT22;21486;51.916;8.378;2022-12-07T07:47:52;2.50;98.00
35381;DHT22;21486;51.916;8.378;2022-12-07T07:50:18;2.40;97.80
35381;DHT22;21486;51.916;8.378;2022-12-07T07:52:44;2.50;97.80
35381;DHT22;21486;51.916;8.378;2022-12-07T07:55:10;2.40;97.80
35381;DHT22;21486;51.916;8.378;2022-12-07T07:57:37;2.30;98.10
35381;DHT22;21486;51.916;8.378;2022-12-07T08:00:14;2.50;97.80
35381;DHT22;21486;51.916;8.378;2022-12-07T08:02:41;2.50;97.60
35381;DHT22;21486;51.916;8.378;2022-12-07T08:05:08;2.40;97.80
35381;DHT22;21486;51.916;8.378;2022-12-07T08:07:34;2.40;98.00
35381;DHT22;21486;51.916;8.378;2022-12-07T08:09:59;2.40;97.70
35381;DHT22;21486;51.916;8.378;2022-12-07T08:12:25;2.50;97.70
35381;DHT22;21486;51.916;8.378;2022-12-07T08:14:51;2.60;97.60
35381;DHT22;21486;51.916;8.378;2022-12-07T08:17:17;2.50;97.60
35381;DHT22;21486;51.916;8.378;2022-12-07T08:19:42;2.50;97.70
35381;DHT22;21486;51.916;8.378;2022-12-07T08:22:08;2.50;97.70
35381;DHT22;21486;51.916;8.378;2022-12-07T08:24:35;2.50;97.60
35381;DHT22;21486;51.916;8.378;2022-12-07T08:27:00;2.50;97.70
35381;DHT22;21486;51.916;8.378;2022-12-07T08:29:26;2.50;97.80
35381;DHT22;21486;51.916;8.378;2022-12-07T08:31:52;2.60;98.00
35381;DHT22;21486;51.916;8.378;2022-12-07T08:34:18;2.70;98.00
35381;DHT22;21486;51.916;8.378;2022-12-07T08:36:44;2.70;97.40
35381;DHT22;21486;51.916;8.378;2022-12-07T08:39:09;2.90;97.40
35381;DHT22;21486;51.916;8.378;2022-12-07T08:41:35;2.90;97.00
35381;DHT22;21486;51.916;8.378;2022-12-07T08:44:01;2.90;96.70
35381;DHT22;21486;51.916;8.378;2022-12-07T08:49:13;2.70;97.20
35381;DHT22;21486;51.916;8.378;2022-12-07T08:51:42;2.70;97.10
35381;DHT22;21486;51.916;8.378;2022-12-07T08:54:10;2.70;97.30
35381;DHT22;21486;51.916;8.378;2022-12-07T08:56:37;2.70;97.30
35381;DHT22;21486;51.916;8.378;2022-12-07T08:59:04;2.70;97.10
35381;DHT22;21486;51.916;8.378;2022-12-07T09:01:34;2.80;97.00
35381;DHT22;21486;51.916;8.378;2022-12-07T09:03:59;2.80;97.10
35381;DHT22;21486;51.916;8.378;2022-12-07T09:06:25;3.10;96.80
35381;DHT22;21486;51.916;8.378;2022-12-07T09:08:55;3.30;96.40
35381;DHT22;21486;51.916;8.378;2022-12-07T09:11:22;3.50;96.20
35381;DHT22;21486;51.916;8.378;2022-12-07T09:13:47;3.80;95.30
35381;DHT22;21486;51.916;8.378;2022-12-07T09:16:13;3.90;94.40
35381;DHT22;21486;51.916;8.378;2022-12-07T09:18:39;4.20;94.20
35381;DHT22;21486;51.916;8.378;2022-12-07T09:21:05;4.90;93.50
35381;DHT22;21486;51.916;8.378;2022-12-07T09:23:30;5.40;91.70
35381;DHT22;21486;51.916;8.378;2022-12-07T09:26:02;5.30;90.70
35381;DHT22;21486;51.916;8.378;2022-12-07T09:28:30;5.50;90.80
35381;DHT22;21486;51.916;8.378;2022-12-07T09:30:56;5.60;90.10
35381;DHT22;21486;51.916;8.378;2022-12-07T09:33:22;5.30;90.50
35381;DHT22;21486;51.916;8.378;2022-12-07T09:35:49;5.30;91.10
35381;DHT22;21486;51.916;8.378;2022-12-07T09:38:16;5.30;90.40
35381;DHT22;21486;51.916;8.378;2022-12-07T09:40:42;5.20;91.20
35381;DHT22;21486;51.916;8.378;2022-12-07T09:43:17;5.30;91.30
35381;DHT22;21486;51.916;8.378;2022-12-07T09:45:44;5.40;91.40
35381;DHT22;21486;51.916;8.378;2022-12-07T09:48:22;5.40;91.20
35381;DHT22;21486;51.916;8.378;2022-12-07T09:50:50;5.30;90.90
35381;DHT22;21486;51.916;8.378;2022-12-07T09:53:25;5.00;92.10
35381;DHT22;21486;51.916;8.378;2022-12-07T09:55:52;4.90;92.50
35381;DHT22;21486;51.916;8.378;2022-12-07T09:58:24;4.90;92.50
35381;DHT22;21486;51.916;8.378;2022-12-07T10:00:55;5.10;92.40
35381;DHT22;21486;51.916;8.378;2022-12-07T10:03:22;5.00;92.40
35381;DHT22;21486;51.916;8.378;2022-12-07T10:05:50;5.10;92.00
35381;DHT22;21486;51.916;8.378;2022-12-07T10:08:17;5.00;92.50
35381;DHT22;21486;51.916;8.378;2022-12-07T10:10:44;5.00;92.70
35381;DHT22;21486;51.916;8.378;2022-12-07T10:13:19;4.90;92.80
35381;DHT22;21486;51.916;8.378;2022-12-07T10:15:49;4.60;92.50
35381;DHT22;21486;51.916;8.378;2022-12-07T10:18:28;4.50;93.80
35381;DHT22;21486;51.916;8.378;2022-12-07T10:23:37;4.60;93.90
35381;DHT22;21486;51.916;8.378;2022-12-07T10:29:31;4.60;93.70
35381;DHT22;21486;51.916;8.378;2022-12-07T10:32:01;4.50;93.20
35381;DHT22;21486;51.916;8.378;2022-12-07T10:34:32;4.60;93.60
35381;DHT22;21486;51.916;8.378;2022-12-07T10:39:49;4.80;92.60
35381;DHT22;21486;51.916;8.378;2022-12-07T10:42:26;4.90;93.30
35381;DHT22;21486;51.916;8.378;2022-12-07T10:55:45;5.50;92.10
35381;DHT22;21486;51.916;8.378;2022-12-07T11:00:49;5.70;91.50
35381;DHT22;21486;51.916;8.378;2022-12-07T11:03:55;5.60;91.30
35381;DHT22;21486;51.916;8.378;2022-12-07T11:06:34;5.90;91.30
35381;DHT22;21486;51.916;8.378;2022-12-07T11:12:26;5.50;91.10
35381;DHT22;21486;51.916;8.378;2022-12-07T11:15:33;5.30;91.30
35381;DHT22;21486;51.916;8.378;2022-12-07T11:18:22;5.20;91.90
35381;DHT22;21486;51.916;8.378;2022-12-07T11:37:38;5.00;93.10
35381;DHT22;21486;51.916;8.378;2022-12-07T11:42:49;5.00;92.50
35381;DHT22;21486;51.916;8.378;2022-12-07T11:58:39;5.50;92.10
35381;DHT22;21486;51.916;8.378;2022-12-07T12:03:36;5.40;91.90
35381;DHT22;21486;51.916;8.378;2022-12-07T12:06:03;5.40;91.80
35381;DHT22;21486;51.916;8.378;2022-12-07T12:16:28;5.10;92.60
35381;DHT22;21486;51.916;8.378;2022-12-07T12:19:22;5.20;93.20
35381;DHT22;21486;51.916;8.378;2022-12-07T12:21:55;5.50;93.00
35381;DHT22;21486;51.916;8.378;2022-12-07T12:24:27;5.80;92.20
35381;DHT22;21486;51.916;8.378;2022-12-07T12:27:08;5.80;91.80
35381;DHT22;21486;51.916;8.378;2022-12-07T12:29:41;6.10;91.40
35381;DHT22;21486;51.916;8.378;2022-12-07T12:32:17;6.10;90.30
35381;DHT22;21486;51.916;8.378;2022-12-07T12:42:53;5.90;91.00
35381;DHT22;21486;51.916;8.378;2022-12-07T12:45:30;5.80;91.10
35381;DHT22;21486;51.916;8.378;2022-12-07T12:50:40;5.30;91.40
35381;DHT22;21486;51.916;8.378;2022-12-07T12:53:25;5.30;91.60
35381;DHT22;21486;51.916;8.378;2022-12-07T12:58:46;5.40;91.10
35381;DHT22;21486;51.916;8.378;2022-12-07T13:01:33;5.40;91.50
35381;DHT22;21486;51.916;8.378;2022-12-07T13:03:59;5.60;91.10
35381;DHT22;21486;51.916;8.378;2022-12-07T13:08:51;5.50;90.80
35381;DHT22;21486;51.916;8.378;2022-12-07T13:16:58;5.40;91.10
35381;DHT22;21486;51.916;8.378;2022-12-07T13:25:23;5.40;91.40
35381;DHT22;21486;51.916;8.378;2022-12-07T13:28:17;5.40;91.90
35381;DHT22;21486;51.916;8.378;2022-12-07T13:33:38;5.60;91.20
35381;DHT22;21486;51.916;8.378;2022-12-07T13:36:04;5.60;91.30
35381;DHT22;21486;51.916;8.378;2022-12-07T13:38:33;5.80;90.70
35381;DHT22;21486;51.916;8.378;2022-12-07T13:41:03;5.80;90.90
35381;DHT22;21486;51.916;8.378;2022-12-07T13:43:29;5.60;90.90
35381;DHT22;21486;51.916;8.378;2022-12-07T13:45:58;5.80;90.70
35381;DHT22;21486;51.916;8.378;2022-12-07T13:48:43;5.80;90.60
35381;DHT22;21486;51.916;8.378;2022-12-07T13:51:20;5.80;90.70
35381;DHT22;21486;51.916;8.378;2022-12-07T13:53:49;5.60;90.60
35381;DHT22;21486;51.916;8.378;2022-12-07T13:56:15;5.60;91.10
35381;DHT22;21486;51.916;8.378;2022-12-07T13:58:41;5.60;91.30
35381;DHT22;21486;51.916;8.378;2022-12-07T14:01:07;5.70;91.00
35381;DHT22;21486;51.916;8.378;2022-12-07T14:03:34;5.60;90.80
35381;DHT22;21486;51.916;8.378;2022-12-07T14:08:31;5.50;91.10
35381;DHT22;21486;51.916;8.378;2022-12-07T14:10:57;5.40;91.50
35381;DHT22;21486;51.916;8.378;2022-12-07T14:13:52;5.30;91.90
35381;DHT22;21486;51.916;8.378;2022-12-07T14:16:28;5.30;92.00
35381;DHT22;21486;51.916;8.378;2022-12-07T14:18:56;5.40;91.80
35381;DHT22;21486;51.916;8.378;2022-12-07T14:21:25;5.30;91.90
35381;DHT22;21486;51.916;8.378;2022-12-07T14:26:37;5.30;91.60
35381;DHT22;21486;51.916;8.378;2022-12-07T14:31:52;5.20;91.40
35381;DHT22;21486;51.916;8.378;2022-12-07T14:34:23;5.20;91.70
35381;DHT22;21486;51.916;8.378;2022-12-07T14:36:49;5.20;91.60
35381;DHT22;21486;51.916;8.378;2022-12-07T14:39:15;5.10;91.60
35381;DHT22;21486;51.916;8.378;2022-12-07T14:41:40;5.10;91.80
35381;DHT22;21486;51.916;8.378;2022-12-07T14:44:22;5.20;91.70
35381;DHT22;21486;51.916;8.378;2022-12-07T14:46:49;5.20;90.90
35381;DHT22;21486;51.916;8.378;2022-12-07T14:49:15;5.20;91.00
35381;DHT22;21486;51.916;8.378;2022-12-07T14:51:41;4.90;91.30
35381;DHT22;21486;51.916;8.378;2022-12-07T14:54:18;4.90;91.30
35381;DHT22;21486;51.916;8.378;2022-12-07T14:56:45;4.80;91.60
35381;DHT22;21486;51.916;8.378;2022-12-07T14:59:14;4.70;91.80
35381;DHT22;21486;51.916;8.378;2022-12-07T15:01:39;4.70;91.80
35381;DHT22;21486;51.916;8.378;2022-12-07T15:04:05;4.60;91.90
35381;DHT22;21486;51.916;8.378;2022-12-07T15:06:31;4.60;92.10
35381;DHT22;21486;51.916;8.378;2022-12-07T15:08:56;4.50;92.20
35381;DHT22;21486;51.916;8.378;2022-12-07T15:11:22;4.40;92.50
35381;DHT22;21486;51.916;8.378;2022-12-07T15:13:48;4.40;92.30
35381;DHT22;21486;51.916;8.378;2022-12-07T15:16:32;4.40;92.50
35381;DHT22;21486;51.916;8.378;2022-12-07T15:18:58;4.40;92.60
35381;DHT22;21486;51.916;8.378;2022-12-07T15:21:23;4.30;92.90
35381;DHT22;21486;51.916;8.378;2022-12-07T15:23:58;4.40;92.80
35381;DHT22;21486;51.916;8.378;2022-12-07T15:26:24;4.40;92.80
35381;DHT22;21486;51.916;8.378;2022-12-07T15:28:49;4.30;92.80
35381;DHT22;21486;51.916;8.378;2022-12-07T15:31:16;4.30;93.10
35381;DHT22;21486;51.916;8.378;2022-12-07T15:33:42;4.30;93.20
35381;DHT22;21486;51.916;8.378;2022-12-07T15:36:14;4.20;93.20
35381;DHT22;21486;51.916;8.378;2022-12-07T15:38:43;4.20;93.30
35381;DHT22;21486;51.916;8.378;2022-12-07T15:41:08;4.10;93.40
35381;DHT22;21486;51.916;8.378;2022-12-07T15:43:36;4.30;93.10
35381;DHT22;21486;51.916;8.378;2022-12-07T15:46:20;4.20;93.10
35381;DHT22;21486;51.916;8.378;2022-12-07T15:48:46;4.20;93.00
35381;DHT22;21486;51.916;8.378;2022-12-07T15:51:11;4.20;93.30
35381;DHT22;21486;51.916;8.378;2022-12-07T15:53:37;4.20;93.60
35381;DHT22;21486;51.916;8.378;2022-12-07T15:56:07;4.10;93.30
35381;DHT22;21486;51.916;8.378;2022-12-07T15:58:33;4.00;93.50
35381;DHT22;21486;51.916;8.378;2022-12-07T16:00:59;4.10;93.50
35381;DHT22;21486;51.916;8.378;2022-12-07T16:03:24;4.00;93.70
35381;DHT22;21486;51.916;8.378;2022-12-07T16:05:51;3.90;93.70
35381;DHT22;21486;51.916;8.378;2022-12-07T16:08:17;3.90;93.80
35381;DHT22;21486;51.916;8.378;2022-12-07T16:10:42;3.90;93.70
35381;DHT22;21486;51.916;8.378;2022-12-07T16:13:09;3.90;94.00
35381;DHT22;21486;51.916;8.378;2022-12-07T16:15:41;3.80;94.10
35381;DHT22;21486;51.916;8.378;2022-12-07T16:18:07;3.90;93.90
35381;DHT22;21486;51.916;8.378;2022-12-07T16:20:32;4.00;93.40
35381;DHT22;21486;51.916;8.378;2022-12-07T16:22:58;4.00;93.30
35381;DHT22;21486;51.916;8.378;2022-12-07T16:25:24;4.00;93.40
35381;DHT22;21486;51.916;8.378;2022-12-07T16:27:51;4.00;93.40
35381;DHT22;21486;51.916;8.378;2022-12-07T16:30:17;3.90;93.40
35381;DHT22;21486;51.916;8.378;2022-12-07T16:32:43;3.90;93.30
35381;DHT22;21486;51.916;8.378;2022-12-07T16:35:10;3.90;93.20
35381;DHT22;21486;51.916;8.378;2022-12-07T16:37:35;4.00;93.00
35381;DHT22;21486;51.916;8.378;2022-12-07T16:40:03;3.90;93.50
35381;DHT22;21486;51.916;8.378;2022-12-07T16:42:32;3.80;93.50
35381;DHT22;21486;51.916;8.378;2022-12-07T16:44:58;3.90;93.50
35381;DHT22;21486;51.916;8.378;2022-12-07T16:47:24;3.80;93.50
35381;DHT22;21486;51.916;8.378;2022-12-07T16:49:49;3.80;93.60
35381;DHT22;21486;51.916;8.378;2022-12-07T16:52:16;3.90;93.30
35381;DHT22;21486;51.916;8.378;2022-12-07T16:54:41;3.80;93.40
35381;DHT22;21486;51.916;8.378;2022-12-07T16:57:08;3.80;93.60
35381;DHT22;21486;51.916;8.378;2022-12-07T16:59:33;3.80;93.40
35381;DHT22;21486;51.916;8.378;2022-12-07T17:01:59;3.90;93.30
35381;DHT22;21486;51.916;8.378;2022-12-07T17:04:25;3.80;93.30
35381;DHT22;21486;51.916;8.378;2022-12-07T17:06:50;3.80;93.40
35381;DHT22;21486;51.916;8.378;2022-12-07T17:09:16;3.80;93.40
35381;DHT22;21486;51.916;8.378;2022-12-07T17:11:44;3.70;93.40
35381;DHT22;21486;51.916;8.378;2022-12-07T17:14:10;3.80;93.20
35381;DHT22;21486;51.916;8.378;2022-12-07T17:16:54;4.00;93.00
35381;DHT22;21486;51.916;8.378;2022-12-07T17:19:20;4.00;92.80
35381;DHT22;21486;51.916;8.378;2022-12-07T17:21:46;3.90;92.80
35381;DHT22;21486;51.916;8.378;2022-12-07T17:24:13;4.00;92.80
35381;DHT22;21486;51.916;8.378;2022-12-07T17:26:41;3.90;93.00
35381;DHT22;21486;51.916;8.378;2022-12-07T17:29:07;3.80;93.10
35381;DHT22;21486;51.916;8.378;2022-12-07T17:31:34;3.80;93.20
35381;DHT22;21486;51.916;8.378;2022-12-07T17:34:00;3.80;93.50
35381;DHT22;21486;51.916;8.378;2022-12-07T17:36:28;3.80;93.40
35381;DHT22;21486;51.916;8.378;2022-12-07T17:38:54;3.90;93.30
35381;DHT22;21486;51.916;8.378;2022-12-07T17:41:23;3.90;93.20
35381;DHT22;21486;51.916;8.378;2022-12-07T17:44:10;3.90;93.30
35381;DHT22;21486;51.916;8.378;2022-12-07T17:46:37;4.00;93.30
35381;DHT22;21486;51.916;8.378;2022-12-07T17:49:03;3.90;93.30
35381;DHT22;21486;51.916;8.378;2022-12-07T17:51:29;3.90;93.50
35381;DHT22;21486;51.916;8.378;2022-12-07T17:54:14;4.00;93.20
35381;DHT22;21486;51.916;8.378;2022-12-07T17:56:41;4.00;92.80
35381;DHT22;21486;51.916;8.378;2022-12-07T17:59:07;4.00;93.20
35381;DHT22;21486;51.916;8.378;2022-12-07T18:01:34;3.90;92.90
35381;DHT22;21486;51.916;8.378;2022-12-07T18:03:59;3.90;93.00
35381;DHT22;21486;51.916;8.378;2022-12-07T18:06:25;3.80;93.20
35381;DHT22;21486;51.916;8.378;2022-12-07T18:08:51;3.90;93.40
35381;DHT22;21486;51.916;8.378;2022-12-07T18:11:17;3.90;93.30
35381;DHT22;21486;51.916;8.378;2022-12-07T18:13:43;3.80;93.60
35381;DHT22;21486;51.916;8.378;2022-12-07T18:16:12;3.80;93.80